sensor_id;sensor_type;location;lat;lon;timestamp;P1;durP1;ratioP1;P2;durP2;ratioP2
76989;SDS011;65924;47.250;11.332;2023-06-10T00:00:43;5.50;;;2.90;;
76989;SDS011;65924;47.250;11.332;2023-06-10T00:10:44;5.40;;;3.30;;
76989;SDS011;65924;47.250;11.332;2023-06-10T00:20:45;6.10;;;3.50;;
76989;SDS011;65924;47.250;11.332;2023-06-10T00:30:46;5.10;;;3.10;;
76989;SDS011;65924;47.250;11.332;2023-06-10T00:40:47;5.20;;;3.30;;
76989;SDS011;65924;47.250;11.332;2023-06-10T00:50:47;6.00;;;3.90;;
76989;SDS011;65924;47.250;11.332;2023-06-10T01:00:50;6.50;;;3.60;;
76989;SDS011;65924;47.250;11.332;2023-06-10T01:10:53;6.20;;;3.50;;
76989;SDS011;65924;47.250;11.332;2023-06-10T01:20:58;6.40;;;3.40;;
76989;SDS011;65924;47.250;11.332;2023-06-10T01:41:15;6.00;;;3.50;;
76989;SDS011;65924;47.250;11.332;2023-06-10T01:51:18;6.30;;;4.10;;
76989;SDS011;65924;47.250;11.332;2023-06-10T02:01:18;5.90;;;3.40;;
76989;SDS011;65924;47.250;11.332;2023-06-10T02:11:19;6.10;;;3.70;;
76989;SDS011;65924;47.250;11.332;2023-06-10T02:21:20;7.50;;;4.70;;
76989;SDS011;65924;47.250;11.332;2023-06-10T02:31:21;5.80;;;3.60;;
76989;SDS011;65924;47.250;11.332;2023-06-10T02:41:21;6.80;;;4.80;;
76989;SDS011;65924;47.250;11.332;2023-06-10T02:51:22;6.30;;;3.80;;
76989;SDS011;65924;47.250;11.332;2023-06-10T03:01:29;6.50;;;3.80;;
76989;SDS011;65924;47.250;11.332;2023-06-10T03:11:41;5.50;;;3.30;;
76989;SDS011;65924;47.250;11.332;2023-06-10T03:21:43;5.90;;;3.70;;
76989;SDS011;65924;47.250;11.332;2023-06-10T03:31:46;7.60;;;4.20;;
76989;SDS011;65924;47.250;11.332;2023-06-10T03:41:47;5.60;;;3.40;;
76989;SDS011;65924;47.250;11.332;2023-06-10T03:51:48;6.40;;;3.70;;
76989;SDS011;65924;47.250;11.332;2023-06-10T04:01:49;7.30;;;4.60;;
76989;SDS011;65924;47.250;11.332;2023-06-10T04:11:51;9.50;;;4.40;;
76989;SDS011;65924;47.250;11.332;2023-06-10T04:21:52;7.50;;;4.40;;
76989;SDS011;65924;47.250;11.332;2023-06-10T04:31:54;8.00;;;4.20;;
76989;SDS011;65924;47.250;11.332;2023-06-10T04:41:55;7.40;;;4.00;;
76989;SDS011;65924;47.250;11.332;2023-06-10T04:51:56;6.50;;;4.30;;
76989;SDS011;65924;47.250;11.332;2023-06-10T05:02:00;7.60;;;5.10;;
76989;SDS011;65924;47.250;11.332;2023-06-10T05:12:00;7.00;;;4.70;;
76989;SDS011;65924;47.250;11.332;2023-06-10T05:22:02;7.80;;;5.20;;
76989;SDS011;65924;47.250;11.332;2023-06-10T05:32:03;7.30;;;4.60;;
76989;SDS011;65924;47.250;11.332;2023-06-10T05:42:04;6.60;;;4.20;;
76989;SDS011;65924;47.250;11.332;2023-06-10T05:52:06;6.70;;;4.40;;
76989;SDS011;65924;47.250;11.332;2023-06-10T06:02:07;6.90;;;4.40;;
76989;SDS011;65924;47.250;11.332;2023-06-10T06:12:08;7.80;;;5.10;;
76989;SDS011;65924;47.250;11.332;2023-06-10T06:22:08;6.80;;;4.40;;
76989;SDS011;65924;47.250;11.332;2023-06-10T06:32:09;7.40;;;5.20;;
76989;SDS011;65924;47.250;11.332;2023-06-10T06:42:10;8.00;;;5.00;;
76989;SDS011;65924;47.250;11.332;2023-06-10T06:52:27;6.50;;;3.90;;
76989;SDS011;65924;47.250;11.332;2023-06-10T07:02:27;6.20;;;4.20;;
76989;SDS011;65924;47.250;11.332;2023-06-10T07:12:28;6.30;;;4.40;;
76989;SDS011;65924;47.250;11.332;2023-06-10T07:22:28;6.00;;;3.80;;
76989;SDS011;65924;47.250;11.332;2023-06-10T07:32:29;4.20;;;2.00;;
76989;SDS011;65924;47.250;11.332;2023-06-10T07:42:30;5.60;;;3.50;;
76989;SDS011;65924;47.250;11.332;2023-06-10T07:52:35;6.80;;;4.20;;
76989;SDS011;65924;47.250;11.332;2023-06-10T08:02:36;6.00;;;3.70;;
76989;SDS011;65924;47.250;11.332;2023-06-10T08:12:37;8.50;;;4.60;;
76989;SDS011;65924;47.250;11.332;2023-06-10T08:22:38;6.80;;;4.10;;
76989;SDS011;65924;47.250;11.332;2023-06-10T08:32:39;6.40;;;4.10;;
76989;SDS011;65924;47.250;11.332;2023-06-10T08:42:42;5.40;;;3.20;;
76989;SDS011;65924;47.250;11.332;2023-06-10T08:52:50;5.40;;;3.00;;
76989;SDS011;65924;47.250;11.332;2023-06-10T09:02:58;6.30;;;3.60;;
76989;SDS011;65924;47.250;11.332;2023-06-10T09:13:00;5.10;;;3.40;;
76989;SDS011;65924;47.250;11.332;2023-06-10T09:23:00;5.20;;;3.40;;
76989;SDS011;65924;47.250;11.332;2023-06-10T09:33:02;5.20;;;3.50;;
76989;SDS011;65924;47.250;11.332;2023-06-10T09:43:09;5.90;;;3.20;;
76989;SDS011;65924;47.250;11.332;2023-06-10T09:53:13;3.40;;;1.70;;
76989;SDS011;65924;47.250;11.332;2023-06-10T10:03:18;5.70;;;3.50;;
76989;SDS011;65924;47.250;11.332;2023-06-10T10:13:23;7.10;;;4.20;;
76989;SDS011;65924;47.250;11.332;2023-06-10T10:23:26;4.80;;;2.30;;
76989;SDS011;65924;47.250;11.332;2023-06-10T10:43:56;5.70;;;3.60;;
76989;SDS011;65924;47.250;11.332;2023-06-10T10:54:11;4.90;;;2.80;;
76989;SDS011;65924;47.250;11.332;2023-06-10T11:04:17;6.60;;;3.70;;
76989;SDS011;65924;47.250;11.332;2023-06-10T11:14:28;4.90;;;3.10;;
76989;SDS011;65924;47.250;11.332;2023-06-10T11:24:30;5.50;;;2.80;;
76989;SDS011;65924;47.250;11.332;2023-06-10T11:34:31;4.70;;;2.40;;
76989;SDS011;65924;47.250;11.332;2023-06-10T11:44:31;4.60;;;2.40;;
76989;SDS011;65924;47.250;11.332;2023-06-10T11:54:33;4.50;;;2.40;;
76989;SDS011;65924;47.250;11.332;2023-06-10T12:04:34;4.90;;;3.40;;
76989;SDS011;65924;47.250;11.332;2023-06-10T12:24:57;4.90;;;2.80;;
76989;SDS011;65924;47.250;11.332;2023-06-10T12:35:06;5.90;;;3.20;;
76989;SDS011;65924;47.250;11.332;2023-06-10T12:45:08;4.00;;;2.00;;
76989;SDS011;65924;47.250;11.332;2023-06-10T12:55:10;4.70;;;2.40;;
76989;SDS011;65924;47.250;11.332;2023-06-10T13:05:11;4.40;;;2.20;;
76989;SDS011;65924;47.250;11.332;2023-06-10T13:15:12;6.90;;;3.00;;
76989;SDS011;65924;47.250;11.332;2023-06-10T13:25:14;5.00;;;2.40;;
76989;SDS011;65924;47.250;11.332;2023-06-10T13:35:15;5.90;;;3.70;;
76989;SDS011;65924;47.250;11.332;2023-06-10T13:45:16;5.70;;;3.60;;
76989;SDS011;65924;47.250;11.332;2023-06-10T13:55:17;5.00;;;3.10;;
76989;SDS011;65924;47.250;11.332;2023-06-10T14:05:19;5.50;;;3.60;;
76989;SDS011;65924;47.250;11.332;2023-06-10T14:15:19;5.50;;;3.70;;
76989;SDS011;65924;47.250;11.332;2023-06-10T14:25:20;5.60;;;3.30;;
76989;SDS011;65924;47.250;11.332;2023-06-10T14:35:21;6.40;;;3.40;;
76989;SDS011;65924;47.250;11.332;2023-06-10T14:45:21;6.30;;;4.10;;
76989;SDS011;65924;47.250;11.332;2023-06-10T14:55:22;5.60;;;3.40;;
76989;SDS011;65924;47.250;11.332;2023-06-10T15:05:23;5.20;;;3.20;;
76989;SDS011;65924;47.250;11.332;2023-06-10T15:15:25;4.60;;;2.50;;
76989;SDS011;65924;47.250;11.332;2023-06-10T15:25:26;6.30;;;4.00;;
76989;SDS011;65924;47.250;11.332;2023-06-10T15:35:26;5.90;;;3.60;;
76989;SDS011;65924;47.250;11.332;2023-06-10T15:45:27;4.60;;;2.90;;
76989;SDS011;65924;47.250;11.332;2023-06-10T15:55:28;7.90;;;4.20;;
76989;SDS011;65924;47.250;11.332;2023-06-10T16:05:29;5.20;;;3.10;;
76989;SDS011;65924;47.250;11.332;2023-06-10T16:15:29;5.70;;;3.80;;
76989;SDS011;65924;47.250;11.332;2023-06-10T16:25:30;6.00;;;3.80;;
76989;SDS011;65924;47.250;11.332;2023-06-10T16:35:34;5.70;;;3.70;;
76989;SDS011;65924;47.250;11.332;2023-06-10T16:45:34;5.60;;;3.70;;
76989;SDS011;65924;47.250;11.332;2023-06-10T16:55:35;6.50;;;3.70;;
76989;SDS011;65924;47.250;11.332;2023-06-10T17:05:38;6.10;;;3.30;;
76989;SDS011;65924;47.250;11.332;2023-06-10T17:15:39;5.50;;;3.50;;
76989;SDS011;65924;47.250;11.332;2023-06-10T17:25:40;5.40;;;3.00;;
76989;SDS011;65924;47.250;11.332;2023-06-10T17:35:40;5.90;;;3.70;;
76989;SDS011;65924;47.250;11.332;2023-06-10T17:45:41;8.40;;;3.90;;
76989;SDS011;65924;47.250;11.332;2023-06-10T17:55:42;5.50;;;3.40;;
76989;SDS011;65924;47.250;11.332;2023-06-10T18:05:42;5.10;;;3.00;;
76989;SDS011;65924;47.250;11.332;2023-06-10T18:15:43;5.70;;;2.80;;
76989;SDS011;65924;47.250;11.332;2023-06-10T18:25:43;5.40;;;2.80;;
76989;SDS011;65924;47.250;11.332;2023-06-10T18:35:44;6.70;;;3.70;;
76989;SDS011;65924;47.250;11.332;2023-06-10T18:45:45;5.00;;;2.50;;
76989;SDS011;65924;47.250;11.332;2023-06-10T18:55:45;6.20;;;3.10;;
76989;SDS011;65924;47.250;11.332;2023-06-10T19:05:46;5.00;;;2.70;;
76989;SDS011;65924;47.250;11.332;2023-06-10T19:15:47;3.10;;;1.30;;
76989;SDS011;65924;47.250;11.332;2023-06-10T19:25:47;4.70;;;2.60;;
76989;SDS011;65924;47.250;11.332;2023-06-10T19:35:48;5.40;;;2.50;;
76989;SDS011;65924;47.250;11.332;2023-06-10T19:45:49;5.80;;;2.70;;
76989;SDS011;65924;47.250;11.332;2023-06-10T19:55:49;4.30;;;2.20;;
76989;SDS011;65924;47.250;11.332;2023-06-10T20:05:50;4.20;;;1.50;;
76989;SDS011;65924;47.250;11.332;2023-06-10T20:15:50;4.40;;;2.50;;
76989;SDS011;65924;47.250;11.332;2023-06-10T20:25:51;4.90;;;2.80;;
76989;SDS011;65924;47.250;11.332;2023-06-10T20:35:52;4.90;;;2.40;;
76989;SDS011;65924;47.250;11.332;2023-06-10T20:45:52;5.70;;;3.00;;
76989;SDS011;65924;47.250;11.332;2023-06-10T20:55:53;4.30;;;2.50;;
76989;SDS011;65924;47.250;11.332;2023-06-10T21:05:53;6.20;;;3.00;;
76989;SDS011;65924;47.250;11.332;2023-06-10T21:15:54;4.20;;;2.30;;
76989;SDS011;65924;47.250;11.332;2023-06-10T21:25:55;4.90;;;2.80;;
76989;SDS011;65924;47.250;11.332;2023-06-10T21:35:55;6.50;;;3.30;;
76989;SDS011;65924;47.250;11.332;2023-06-10T21:45:56;7.40;;;3.30;;
76989;SDS011;65924;47.250;11.332;2023-06-10T21:55:56;9.60;;;4.50;;
76989;SDS011;65924;47.250;11.332;2023-06-10T22:05:57;6.80;;;3.30;;
76989;SDS011;65924;47.250;11.332;2023-06-10T22:16:01;6.60;;;3.60;;
76989;SDS011;65924;47.250;11.332;2023-06-10T22:26:02;7.10;;;4.20;;
76989;SDS011;65924;47.250;11.332;2023-06-10T22:36:03;7.60;;;4.70;;
76989;SDS011;65924;47.250;11.332;2023-06-10T22:46:04;6.50;;;4.30;;
76989;SDS011;65924;47.250;11.332;2023-06-10T22:56:05;5.60;;;3.70;;
76989;SDS011;65924;47.250;11.332;2023-06-10T23:06:05;6.10;;;3.50;;
76989;SDS011;65924;47.250;11.332;2023-06-10T23:16:06;6.40;;;4.10;;
76989;SDS011;65924;47.250;11.332;2023-06-10T23:26:07;6.60;;;3.50;;
76989;SDS011;65924;47.250;11.332;2023-06-10T23:36:08;6.90;;;4.30;;
76989;SDS011;65924;47.250;11.332;2023-06-10T23:46:08;6.50;;;4.30;;
76989;SDS011;65924;47.250;11.332;2023-06-10T23:56:09;9.60;;;4.90;;
